Time;durP1;ratioP1;P1;durP2;ratioP2;P2;SDS_P1;SDS_P2;PMS_P1;PMS_P2;Temp;Humidity;BMP_temperature;BMP_pressure;BME280_temperature;BME280_humidity;BME280_pressure;Samples;Min_cycle;Max_cycle;Signal;HPM_P1;HPM_P2
2023/03/13 00:01:42;;;;;;;2.05;0.50;;;;;;;11.17;100.00;97553.03;5029086;28;20411;-44
2023/03/13 00:04:09;;;;;;;2.05;0.57;;;;;;;11.16;100.00;97545.91;5029328;28;20053;-44
2023/03/13 00:06:37;;;;;;;0.63;0.30;;;;;;;11.17;100.00;97535.63;5011592;28;20045;-44
2023/03/13 00:09:07;;;;;;;0.52;0.22;;;;;;;11.17;100.00;97541.94;5029585;28;20053;-44
2023/03/13 00:11:35;;;;;;;0.40;0.40;;;;;;;11.18;100.00;97532.41;5026699;28;20045;-44
2023/03/13 00:14:03;;;;;;;1.02;0.45;;;;;;;11.18;100.00;97515.81;5025094;28;20045;-44
2023/03/13 00:16:33;;;;;;;1.75;0.30;;;;;;;11.19;100.00;97495.22;5023576;28;20042;-44
2023/03/13 00:19:00;;;;;;;1.60;0.20;;;;;;;11.19;100.00;97480.59;5024623;28;20111;-44
2023/03/13 00:21:28;;;;;;;0.50;0.30;;;;;;;11.21;100.00;97465.13;5027367;28;20056;-44
2023/03/13 00:23:55;;;;;;;0.98;0.17;;;;;;;11.19;100.00;97467.53;5025919;28;20063;-44
2023/03/13 00:26:24;;;;;;;2.25;0.20;;;;;;;11.16;100.00;97457.31;5024955;28;20376;-44
2023/03/13 00:28:51;;;;;;;2.22;0.20;;;;;;;11.14;100.00;97451.44;5023024;28;20049;-47
2023/03/13 00:31:21;;;;;;;0.20;0.10;;;;;;;11.12;100.00;97442.75;5026347;28;20056;-44
2023/03/13 00:33:51;;;;;;;0.63;0.20;;;;;;;11.11;100.00;97427.38;5021603;28;20045;-51
2023/03/13 00:36:24;;;;;;;0.47;0.10;;;;;;;11.09;100.00;97435.34;5022805;28;20053;-47
2023/03/13 00:38:52;;;;;;;1.73;0.10;;;;;;;11.08;100.00;97439.31;5022213;28;20084;-44
2023/03/13 00:41:22;;;;;;;0.10;0.10;;;;;;;11.08;100.00;97432.97;5028419;28;20511;-45
2023/03/13 00:43:49;;;;;;;1.65;0.13;;;;;;;11.07;100.00;97425.91;5023461;28;20484;-44
2023/03/13 00:46:18;;;;;;;0.38;0.10;;;;;;;11.06;100.00;97422.34;5023651;28;20076;-45
2023/03/13 00:48:45;;;;;;;0.15;0.00;;;;;;;11.06;100.00;97421.56;5027072;28;20068;-44
2023/03/13 00:51:14;;;;;;;0.00;0.00;;;;;;;11.05;100.00;97420.00;5024906;28;20052;-47
2023/03/13 00:53:41;;;;;;;0.10;0.10;;;;;;;11.05;100.00;97384.78;5026025;28;20064;-44
2023/03/13 00:56:11;;;;;;;0.13;0.10;;;;;;;11.05;100.00;97387.56;5022473;28;20052;-44
2023/03/13 00:58:40;;;;;;;0.32;0.10;;;;;;;11.04;100.00;97394.28;5025715;28;20091;-44
2023/03/13 01:01:07;;;;;;;1.05;0.10;;;;;;;11.02;100.00;97394.72;5022370;28;20049;-48
2023/03/13 01:03:35;;;;;;;0.00;0.00;;;;;;;11.00;100.00;97383.31;5020006;28;20399;-44
2023/03/13 01:06:05;;;;;;;0.08;0.00;;;;;;;11.00;100.00;97390.84;5028204;28;20041;-45
2023/03/13 01:08:32;;;;;;;0.75;0.10;;;;;;;11.00;100.00;97377.78;5028292;28;20399;-45
2023/03/13 01:11:08;;;;;;;0.17;0.10;;;;;;;10.98;100.00;97371.13;5028579;28;20056;-44
2023/03/13 01:13:36;;;;;;;0.52;0.20;;;;;;;10.98;100.00;97362.81;5028609;28;20049;-45
2023/03/13 01:16:03;;;;;;;0.32;0.00;;;;;;;10.98;100.00;97351.75;5028462;28;20068;-44
2023/03/13 01:18:30;;;;;;;0.00;0.00;;;;;;;10.97;100.00;97361.25;5028755;28;20044;-45
2023/03/13 01:20:57;;;;;;;0.20;0.10;;;;;;;10.94;100.00;97351.81;5028403;28;20538;-44
2023/03/13 01:23:24;;;;;;;0.10;0.00;;;;;;;10.93;100.00;97355.03;5028197;28;20491;-45
2023/03/13 01:25:51;;;;;;;1.60;0.20;;;;;;;10.93;100.00;97341.19;5022687;28;20038;-48
2023/03/13 01:28:17;;;;;;;1.13;0.00;;;;;;;10.94;100.00;97356.56;5018056;28;20057;-44
2023/03/13 01:30:47;;;;;;;0.10;0.10;;;;;;;10.95;100.00;97349.84;5020077;28;20133;-46
2023/03/13 01:33:14;;;;;;;1.15;0.10;;;;;;;10.93;100.00;97338.41;5024183;28;20046;-44
2023/03/13 01:35:41;;;;;;;1.13;0.10;;;;;;;10.90;100.00;97342.03;5027997;28;20049;-45
2023/03/13 01:38:08;;;;;;;0.57;0.30;;;;;;;10.90;100.00;97330.97;5010282;28;20155;-44
2023/03/13 01:40:46;;;;;;;1.08;0.20;;;;;;;10.88;100.00;97336.91;5016753;28;20365;-44
2023/03/13 01:43:25;;;;;;;0.40;0.10;;;;;;;10.90;100.00;97342.03;5024771;28;20132;-44
2023/03/13 01:46:08;;;;;;;0.52;0.10;;;;;;;10.89;100.00;97332.94;5024279;28;20053;-47
2023/03/13 01:48:41;;;;;;;0.40;0.20;;;;;;;10.91;100.00;97347.13;5022851;28;20057;-45
2023/03/13 01:51:15;;;;;;;0.22;0.10;;;;;;;10.93;100.00;97328.09;5026163;28;20640;-45
2023/03/13 01:53:46;;;;;;;0.30;0.20;;;;;;;10.95;100.00;97308.31;5031156;28;20038;-44
2023/03/13 01:56:17;;;;;;;0.10;0.10;;;;;;;10.97;100.00;97298.38;5024387;28;20053;-44
2023/03/13 01:58:46;;;;;;;1.17;0.30;;;;;;;10.98;100.00;97290.84;5011162;28;20446;-44
2023/03/13 02:01:14;;;;;;;0.15;0.13;;;;;;;10.96;100.00;97288.50;5031202;28;20046;-45
2023/03/13 02:03:41;;;;;;;0.55;0.10;;;;;;;10.94;100.00;97293.69;5031481;28;20042;-45
2023/03/13 02:06:09;;;;;;;0.98;0.20;;;;;;;10.95;100.00;97303.56;5030975;28;20454;-44
2023/03/13 02:08:41;;;;;;;0.47;0.40;;;;;;;10.97;100.00;97289.28;5031813;28;20434;-44
2023/03/13 02:11:39;;;;;;;1.27;0.40;;;;;;;10.99;100.00;97284.09;5031924;28;20045;-46
2023/03/13 02:14:06;;;;;;;0.50;0.35;;;;;;;11.01;100.00;97284.47;5025345;28;20048;-44
2023/03/13 02:16:34;;;;;;;0.88;0.30;;;;;;;11.02;100.00;97286.78;5031252;28;20055;-46
2023/03/13 02:19:12;;;;;;;0.40;0.20;;;;;;;11.04;100.00;97255.13;5013546;28;20075;-44
2023/03/13 02:22:17;;;;;;;2.63;0.90;;;;;;;11.05;100.00;97256.66;5031242;28;20060;-44
2023/03/13 02:25:19;;;;;;;0.65;0.30;;;;;;;11.04;100.00;97260.66;5031438;28;20407;-45
2023/03/13 02:27:47;;;;;;;2.17;0.60;;;;;;;11.02;100.00;97263.84;5020303;28;20107;-44
2023/03/13 02:30:14;;;;;;;2.95;0.40;;;;;;;11.03;100.00;97268.19;5022990;28;20045;-44
2023/03/13 02:32:43;;;;;;;4.45;0.60;;;;;;;11.02;100.00;97274.91;5024762;28;20046;-44
2023/03/13 02:35:13;;;;;;;1.55;0.40;;;;;;;11.01;100.00;97263.06;5028858;28;20059;-44
2023/03/13 02:38:14;;;;;;;3.90;1.77;;;;;;;11.00;100.00;97260.75;5026995;28;20057;-44
2023/03/13 02:40:45;;;;;;;3.90;1.17;;;;;;;11.00;100.00;97244.13;4997176;28;20054;-44
2023/03/13 02:43:20;;;;;;;1.75;0.85;;;;;;;11.00;100.00;97225.53;5021939;28;20034;-44
2023/03/13 02:46:06;;;;;;;5.85;1.25;;;;;;;11.00;100.00;97227.53;5009888;28;20046;-45
2023/03/13 02:48:39;;;;;;;7.28;1.77;;;;;;;11.00;100.00;97227.53;5008827;28;20046;-44
2023/03/13 02:51:29;;;;;;;8.40;1.08;;;;;;;11.00;100.00;97205.38;5026966;28;20152;-44
2023/03/13 02:54:05;;;;;;;4.50;1.10;;;;;;;10.99;100.00;97196.28;5027509;28;20049;-44
2023/03/13 02:56:35;;;;;;;7.35;1.85;;;;;;;10.96;100.00;97199.19;5027486;28;20048;-44
2023/03/13 02:59:01;;;;;;;8.05;1.30;;;;;;;10.93;100.00;97184.19;5021476;28;20057;-44
2023/03/13 03:01:28;;;;;;;7.47;1.45;;;;;;;10.91;100.00;97183.06;5103166;22;20058;-47
2023/03/13 03:03:55;;;;;;;9.02;1.50;;;;;;;10.87;100.00;97183.19;5030960;28;20042;-44
2023/03/13 03:06:22;;;;;;;11.38;2.08;;;;;;;10.84;100.00;97169.41;5050340;28;20045;-44
2023/03/13 03:08:48;;;;;;;11.10;1.80;;;;;;;10.83;100.00;97173.38;5050925;28;20053;-44
2023/03/13 03:11:15;;;;;;;9.75;2.22;;;;;;;10.83;100.00;97163.09;5050618;28;20091;-46
2023/03/13 03:13:42;;;;;;;9.48;3.17;;;;;;;10.83;100.00;97145.72;5051009;28;20044;-45
2023/03/13 03:16:11;;;;;;;11.57;2.38;;;;;;;10.81;100.00;97139.84;5040638;28;20040;-45
2023/03/13 03:18:38;;;;;;;12.23;2.10;;;;;;;10.80;100.00;97149.38;5048955;28;20044;-44
2023/03/13 03:21:05;;;;;;;15.00;2.20;;;;;;;10.80;100.00;97138.31;5050666;28;20049;-45
2023/03/13 03:23:33;;;;;;;16.48;2.83;;;;;;;10.80;100.00;97127.25;5049260;28;20107;-44
2023/03/13 03:26:02;;;;;;;10.15;1.60;;;;;;;10.78;100.00;97130.44;5050026;28;20049;-44
2023/03/13 03:28:28;;;;;;;13.48;3.33;;;;;;;10.79;100.00;97133.97;5049957;28;20060;-45
2023/03/13 03:30:55;;;;;;;9.80;2.00;;;;;;;10.79;100.00;97122.91;5048177;28;20045;-44
2023/03/13 03:33:22;;;;;;;17.83;3.88;;;;;;;10.78;100.00;97129.63;5046367;28;20118;-45
2023/03/13 03:35:49;;;;;;;11.13;3.08;;;;;;;10.78;100.00;97115.81;5049852;28;20052;-47
2023/03/13 03:38:16;;;;;;;8.18;2.38;;;;;;;10.79;100.00;97109.84;5044720;28;20096;-45
2023/03/13 03:40:43;;;;;;;11.85;1.50;;;;;;;10.79;100.00;97109.06;5049588;28;20099;-44
2023/03/13 03:43:09;;;;;;;6.78;1.88;;;;;;;10.81;100.00;97109.41;5047926;28;20498;-47
2023/03/13 03:45:36;;;;;;;2.03;0.80;;;;;;;10.78;100.00;97122.13;5043275;28;20047;-44
2023/03/13 03:48:03;;;;;;;4.97;0.80;;;;;;;10.74;100.00;97113.16;5046792;28;20173;-47
2023/03/13 03:50:30;;;;;;;1.67;0.38;;;;;;;10.67;100.00;97113.31;5044226;28;20037;-44
2023/03/13 03:52:56;;;;;;;2.20;0.30;;;;;;;10.60;100.00;97118.25;5044796;28;20073;-44
2023/03/13 03:55:23;;;;;;;3.45;1.10;;;;;;;10.52;100.00;97117.66;5040729;28;20048;-45
2023/03/13 03:57:50;;;;;;;1.30;0.30;;;;;;;10.45;100.00;97108.75;5049021;28;20407;-45
2023/03/13 04:00:18;;;;;;;1.23;0.30;;;;;;;10.39;100.00;97100.19;5049259;28;20131;-46
2023/03/13 04:02:45;;;;;;;2.78;0.22;;;;;;;10.35;100.00;97111.34;5049105;28;20041;-48
2023/03/13 04:05:11;;;;;;;1.88;0.38;;;;;;;10.29;100.00;97085.44;5050100;28;20091;-44
2023/03/13 04:07:38;;;;;;;2.22;0.50;;;;;;;10.26;100.00;97089.06;5049121;28;20063;-45
2023/03/13 04:10:05;;;;;;;0.90;0.30;;;;;;;10.21;100.00;97083.25;5049310;28;20462;-44
2023/03/13 04:12:32;;;;;;;0.98;0.28;;;;;;;10.17;100.00;97086.09;5048386;28;20052;-44
2023/03/13 04:14:59;;;;;;;4.32;0.73;;;;;;;10.10;100.00;97083.50;5049641;28;20059;-44
2023/03/13 04:17:26;;;;;;;0.50;0.20;;;;;;;10.04;100.00;97084.41;5049006;28;20037;-44
2023/03/13 04:19:53;;;;;;;1.95;0.25;;;;;;;9.96;100.00;97077.50;5049144;28;20076;-44
2023/03/13 04:22:19;;;;;;;2.88;0.73;;;;;;;9.86;100.00;97078.53;5047929;28;20120;-44
2023/03/13 04:24:46;;;;;;;0.70;0.10;;;;;;;9.77;100.00;97082.66;5049401;28;20479;-47
2023/03/13 04:27:12;;;;;;;0.68;0.20;;;;;;;9.73;100.00;97059.09;5048668;28;20048;-44
2023/03/13 04:29:39;;;;;;;0.60;0.10;;;;;;;9.69;100.00;97052.84;5048658;28;20045;-44
2023/03/13 04:32:06;;;;;;;0.52;0.15;;;;;;;9.65;100.00;97046.63;5042099;28;20055;-44
2023/03/13 04:34:33;;;;;;;0.35;0.10;;;;;;;9.66;100.00;97034.41;5044580;28;20518;-47
2023/03/13 04:36:59;;;;;;;0.35;0.10;;;;;;;9.67;100.00;97041.47;5045243;28;20060;-44
2023/03/13 04:39:26;;;;;;;1.13;0.10;;;;;;;9.66;100.00;97062.00;5046692;28;20049;-44
2023/03/13 04:41:54;;;;;;;1.30;0.22;;;;;;;9.67;100.00;97080.13;5046078;28;20045;-44
2023/03/13 04:44:21;;;;;;;0.05;0.05;;;;;;;9.67;100.00;97077.34;5041458;28;20140;-44
2023/03/13 04:46:48;;;;;;;0.10;0.10;;;;;;;9.66;100.00;97070.31;5040265;28;20699;-44
2023/03/13 04:49:16;;;;;;;2.85;0.20;;;;;;;9.64;100.00;97054.13;5042385;28;20053;-44
2023/03/13 04:51:43;;;;;;;0.20;0.10;;;;;;;9.62;100.00;97053.81;5044034;28;20286;-44
2023/03/13 04:54:11;;;;;;;0.10;0.10;;;;;;;9.58;100.00;97063.38;5048765;28;20120;-44
2023/03/13 04:56:38;;;;;;;1.48;0.10;;;;;;;9.55;100.00;97062.25;5048720;28;20037;-44
2023/03/13 04:59:13;;;;;;;2.08;0.75;;;;;;;9.51;100.00;97052.47;5046561;28;20055;-44
2023/03/13 05:01:41;;;;;;;0.10;0.10;;;;;;;9.46;100.00;97064.78;5046032;28;20061;-51
2023/03/13 05:04:09;;;;;;;0.43;0.20;;;;;;;9.44;100.00;97058.16;5039210;28;20059;-45
2023/03/13 05:06:35;;;;;;;1.10;0.20;;;;;;;9.41;100.00;97045.19;5043953;28;20057;-44
2023/03/13 05:09:03;;;;;;;0.82;0.10;;;;;;;9.38;100.00;97026.72;5047991;28;20643;-44
2023/03/13 05:11:29;;;;;;;0.98;0.10;;;;;;;9.37;100.00;97028.69;5044849;28;20064;-45
2023/03/13 05:13:56;;;;;;;0.00;0.00;;;;;;;9.36;100.00;97029.13;5046013;28;20049;-44
2023/03/13 05:16:23;;;;;;;0.20;0.00;;;;;;;9.36;100.00;97018.09;5045393;28;20387;-47
2023/03/13 05:18:49;;;;;;;0.15;0.08;;;;;;;9.36;100.00;97018.88;5044993;28;20037;-44
2023/03/13 05:21:16;;;;;;;1.48;0.15;;;;;;;9.35;100.00;97022.06;5042644;28;20051;-44
2023/03/13 05:23:43;;;;;;;1.65;0.45;;;;;;;9.33;100.00;97013.44;5049454;28;20055;-44
2023/03/13 05:26:09;;;;;;;2.17;0.10;;;;;;;9.35;100.00;96988.94;5048763;28;20048;-47
2023/03/13 05:28:36;;;;;;;0.45;0.28;;;;;;;9.34;100.00;96990.16;5046686;28;20076;-44
2023/03/13 05:31:03;;;;;;;0.30;0.20;;;;;;;9.34;100.00;97004.72;5066353;28;20049;-48
2023/03/13 05:33:30;;;;;;;0.88;0.13;;;;;;;9.34;100.00;97009.47;5046788;28;20580;-44
2023/03/13 05:35:56;;;;;;;1.23;0.10;;;;;;;9.37;100.00;97014.16;5048698;28;20029;-43
2023/03/13 05:38:23;;;;;;;0.10;0.10;;;;;;;9.38;100.00;97010.16;5047254;28;20080;-43
2023/03/13 05:40:50;;;;;;;1.13;0.15;;;;;;;9.39;100.00;97008.97;5049270;28;20049;-43
2023/03/13 05:43:16;;;;;;;2.25;0.30;;;;;;;9.39;100.00;96990.44;5046288;28;20053;-43
2023/03/13 05:45:43;;;;;;;0.20;0.10;;;;;;;9.41;100.00;96989.97;5049342;28;20699;-43
2023/03/13 05:48:09;;;;;;;2.85;0.20;;;;;;;9.42;100.00;96994.31;5047510;28;20444;-44
2023/03/13 05:50:36;;;;;;;0.30;0.10;;;;;;;9.42;100.00;96988.78;5044784;28;20048;-49
2023/03/13 05:53:03;;;;;;;1.13;0.13;;;;;;;9.41;100.00;96992.75;5048040;28;20049;-43
2023/03/13 05:55:29;;;;;;;0.25;0.00;;;;;;;9.42;100.00;96988.78;5045594;28;20052;-43
2023/03/13 05:57:56;;;;;;;0.10;0.05;;;;;;;9.42;100.00;96980.50;5044842;28;20053;-44
2023/03/13 06:00:23;;;;;;;0.70;0.10;;;;;;;9.44;100.00;96975.31;5047478;28;20055;-46
2023/03/13 06:02:50;;;;;;;1.30;0.10;;;;;;;9.46;100.00;96981.19;5068112;28;20056;-44
2023/03/13 06:05:16;;;;;;;0.30;0.10;;;;;;;9.48;100.00;96967.72;5072330;28;20506;-43
2023/03/13 06:07:43;;;;;;;0.03;0.00;;;;;;;9.49;100.00;96983.09;5071703;28;20044;-45
2023/03/13 06:10:10;;;;;;;1.05;0.20;;;;;;;9.50;100.00;96979.13;5071526;28;20052;-44
2023/03/13 06:12:37;;;;;;;0.10;0.03;;;;;;;9.50;100.00;96968.88;5071524;28;20106;-43
2023/03/13 06:15:06;;;;;;;0.73;0.15;;;;;;;9.50;100.00;96973.63;5071477;28;20143;-45
2023/03/13 06:17:34;;;;;;;3.03;0.25;;;;;;;9.52;100.00;96977.50;5071348;28;20064;-43
2023/03/13 06:20:04;;;;;;;1.55;0.30;;;;;;;9.52;100.00;96966.47;5071225;28;20060;-43
2023/03/13 06:22:31;;;;;;;0.50;0.30;;;;;;;9.51;100.00;96966.88;5071953;28;20051;-54
2023/03/13 06:24:57;;;;;;;0.10;0.10;;;;;;;9.46;100.00;96946.09;5071488;28;20043;-43
2023/03/13 06:27:24;;;;;;;1.33;0.52;;;;;;;9.42;100.00;96939.09;5071200;28;20044;-43
2023/03/13 06:29:50;;;;;;;2.63;0.30;;;;;;;9.38;100.00;96924.59;5071353;28;20052;-43
2023/03/13 06:32:17;;;;;;;1.17;0.28;;;;;;;9.35;100.00;96961.31;5066153;28;20056;-43
2023/03/13 06:34:44;;;;;;;2.72;0.40;;;;;;;9.31;100.00;96968.91;5068254;28;20393;-44
2023/03/13 06:37:11;;;;;;;2.92;0.40;;;;;;;9.29;100.00;96968.56;5062224;28;20048;-44
2023/03/13 06:39:37;;;;;;;1.15;0.60;;;;;;;9.30;100.00;96959.84;5068571;28;20043;-43
2023/03/13 06:42:04;;;;;;;1.58;0.50;;;;;;;9.31;100.00;96966.16;5068457;28;20044;-46
2023/03/13 06:44:31;;;;;;;7.93;1.30;;;;;;;9.27;100.00;96965.44;5067153;28;20112;-43
2023/03/13 06:46:58;;;;;;;1.35;0.88;;;;;;;9.26;100.00;96961.16;5064819;28;20051;-45
2023/03/13 06:49:25;;;;;;;6.82;1.15;;;;;;;9.28;100.00;96955.97;5066640;28;20056;-43
2023/03/13 06:51:51;;;;;;;6.53;1.10;;;;;;;9.27;100.00;96963.47;5061841;28;20052;-45
2023/03/13 06:54:18;;;;;;;8.90;0.85;;;;;;;9.28;100.00;96955.97;5065562;28;20041;-43
2023/03/13 06:56:44;;;;;;;5.45;1.20;;;;;;;9.31;100.00;96961.41;5068297;28;20044;-43
2023/03/13 06:59:11;;;;;;;6.60;1.25;;;;;;;9.32;100.00;96973.25;5067736;28;20103;-48
2023/03/13 07:01:38;;;;;;;4.53;1.10;;;;;;;9.32;100.00;96962.22;5066805;28;20060;-43
2023/03/13 07:04:04;;;;;;;8.82;1.80;;;;;;;9.33;100.00;96960.97;5065410;28;20052;-44
2023/03/13 07:06:31;;;;;;;4.47;1.77;;;;;;;9.33;100.00;96960.97;5067637;28;20111;-43
2023/03/13 07:08:58;;;;;;;6.57;1.55;;;;;;;9.34;100.00;96968.06;5049061;28;20500;-43
2023/03/13 07:11:25;;;;;;;3.25;0.82;;;;;;;9.36;100.00;96962.88;5070206;28;20486;-43
2023/03/13 07:13:54;;;;;;;10.88;3.58;;;;;;;9.37;100.00;96975.50;5067974;28;20055;-43
2023/03/13 07:16:40;;;;;;;6.90;1.65;;;;;;;9.38;100.00;96972.28;5065334;28;20056;-43
2023/03/13 07:19:07;;;;;;;4.22;1.00;;;;;;;9.42;100.00;96970.25;5068156;28;20045;-43
2023/03/13 07:21:33;;;;;;;2.60;1.15;;;;;;;9.44;100.00;96978.88;5066516;28;20105;-43
2023/03/13 07:24:00;;;;;;;4.28;0.93;;;;;;;9.48;100.00;96979.56;5046234;28;20039;-43
2023/03/13 07:26:27;;;;;;;6.10;0.98;;;;;;;9.51;100.00;96980.69;5064463;28;20048;-46
2023/03/13 07:28:55;;;;;;;6.10;2.17;;;;;;;9.52;100.00;96983.03;5049559;28;20119;-46
2023/03/13 07:31:25;;;;;;;2.53;0.98;;;;;;;9.52;100.00;96987.75;5061179;28;20111;-43
2023/03/13 07:33:55;;;;;;;4.70;0.80;;;;;;;9.52;100.00;96977.50;5054618;28;20440;-44
2023/03/13 07:36:22;;;;;;;6.72;3.03;;;;;;;9.52;100.00;96983.03;5063945;28;20040;-46
2023/03/13 07:38:50;;;;;;;3.78;1.98;;;;;;;9.55;100.00;96984.16;5051337;28;20040;-43
2023/03/13 07:41:18;;;;;;;4.72;1.13;;;;;;;9.61;100.00;96979.69;5069312;28;20084;-44
2023/03/13 07:43:45;;;;;;;4.13;0.68;;;;;;;9.65;100.00;96988.66;5069492;28;20090;-44
2023/03/13 07:46:14;;;;;;;4.93;0.93;;;;;;;9.71;100.00;97000.75;5056738;28;20047;-42
2023/03/13 07:48:42;;;;;;;4.32;1.17;;;;;;;9.73;100.00;96999.09;5069380;28;20040;-42
2023/03/13 07:51:15;;;;;;;3.47;1.85;;;;;;;9.75;100.00;97001.41;5069494;28;20147;-42
2023/03/13 07:53:48;;;;;;;6.80;2.75;;;;;;;9.78;100.00;96995.03;5068344;28;20070;-42
2023/03/13 07:56:17;;;;;;;2.75;0.63;;;;;;;9.80;100.00;96992.63;5058648;28;20040;-44
2023/03/13 07:58:44;;;;;;;5.32;0.80;;;;;;;9.82;100.00;96995.75;5069118;28;20491;-43
2023/03/13 08:01:25;;;;;;;6.05;1.15;;;;;;;9.88;100.00;96998.75;5068805;28;20048;-43
2023/03/13 08:03:57;;;;;;;4.93;1.23;;;;;;;9.88;100.00;96999.53;5068351;28;20500;-42
2023/03/13 08:06:25;;;;;;;6.60;1.48;;;;;;;9.92;100.00;97000.25;5059485;28;20033;-44
2023/03/13 08:08:56;;;;;;;8.30;2.15;;;;;;;10.04;100.00;97004.28;5057891;28;20048;-46
2023/03/13 08:11:25;;;;;;;6.50;1.10;;;;;;;10.14;100.00;96998.50;5063900;28;20048;-48
2023/03/13 08:13:53;;;;;;;8.20;1.50;;;;;;;10.25;100.00;96998.25;5063813;28;20091;-43
2023/03/13 08:16:25;;;;;;;11.95;4.25;;;;;;;10.32;100.00;96998.88;5064289;28;20398;-44
2023/03/13 08:18:54;;;;;;;10.52;2.25;;;;;;;10.38;100.00;96988.81;5059816;28;20502;-43
2023/03/13 08:21:29;;;;;;;17.25;3.33;;;;;;;10.39;100.00;97001.44;5065056;28;20044;-46
2023/03/13 08:24:00;;;;;;;14.20;2.83;;;;;;;10.38;100.00;97001.84;5068212;28;20052;-43
2023/03/13 08:26:28;;;;;;;20.13;4.05;;;;;;;10.38;100.00;97010.16;5068564;28;20037;-43
2023/03/13 08:28:58;;;;;;;10.63;3.50;;;;;;;10.37;100.00;97014.16;5068248;28;20036;-43
2023/03/13 08:31:28;;;;;;;22.50;5.28;;;;;;;10.36;100.00;97012.56;5068192;28;20490;-46
2023/03/13 08:33:54;;;;;;;19.02;3.28;;;;;;;10.34;100.00;97006.72;5069224;28;20047;-42
2023/03/13 08:36:27;;;;;;;22.70;3.35;;;;;;;10.30;100.00;97004.03;5068981;28;20048;-44
2023/03/13 08:38:54;;;;;;;;;;;;;;;10.25;100.00;97004.56;5062459;28;20060;-44
2023/03/13 08:41:24;;;;;;;28.13;3.95;;;;;;;10.22;100.00;97015.69;5055603;28;19974;-44
2023/03/13 08:43:52;;;;;;;22.60;4.80;;;;;;;10.18;100.00;97024.09;5068641;28;20102;-43
2023/03/13 08:46:19;;;;;;;19.30;3.90;;;;;;;10.20;100.00;97010.63;5068809;28;20052;-43
2023/03/13 08:48:50;;;;;;;26.23;6.25;;;;;;;10.26;100.00;97008.88;5068511;28;20040;-49
2023/03/13 08:51:18;;;;;;;15.93;3.53;;;;;;;10.36;100.00;97007.84;5068474;28;20041;-44
2023/03/13 08:53:45;;;;;;;12.02;3.47;;;;;;;10.42;100.00;97012.84;5071462;28;20044;-43
2023/03/13 08:56:14;;;;;;;22.38;3.80;;;;;;;10.48;100.00;97008.34;5072244;28;20045;-44
2023/03/13 08:58:41;;;;;;;13.43;4.35;;;;;;;10.51;100.00;97029.59;5067979;28;20055;-47
2023/03/13 09:01:13;;;;;;;19.75;3.50;;;;;;;10.53;100.00;97021.63;5068514;28;20033;-43
2023/03/13 09:03:40;;;;;;;;;;;;;;;10.52;100.00;97020.84;5069162;28;20048;-43
2023/03/13 09:06:08;;;;;;;17.65;2.95;;;;;;;10.55;100.00;97028.28;5068486;28;20279;-45
2023/03/13 09:08:36;;;;;;;18.60;4.05;;;;;;;10.57;100.00;97022.31;5068760;28;20068;-46
2023/03/13 09:11:04;;;;;;;18.70;3.83;;;;;;;10.56;100.00;97020.78;5069410;28;20098;-44
2023/03/13 09:13:33;;;;;;;21.75;3.42;;;;;;;10.57;100.00;97033.38;5068773;28;20044;-45
2023/03/13 09:16:11;;;;;;;14.95;3.25;;;;;;;10.56;100.00;97026.31;5068425;28;20170;-43
2023/03/13 09:18:39;;;;;;;15.38;4.30;;;;;;;10.58;100.00;97029.41;5068496;28;20052;-44
2023/03/13 09:21:12;;;;;;;9.57;2.53;;;;;;;10.63;100.00;97037.16;5068590;28;20062;-44
2023/03/13 09:23:40;;;;;;;14.38;2.90;;;;;;;10.61;100.00;97031.31;5068587;28;20106;-47
2023/03/13 09:26:06;;;;;;;9.15;2.45;;;;;;;10.61;100.00;97026.56;5068764;28;20439;-44
2023/03/13 09:28:33;;;;;;;13.10;2.70;;;;;;;10.59;100.00;97025.44;5069105;28;20079;-44
2023/03/13 09:31:12;;;;;;;20.20;2.80;;;;;;;10.63;100.00;97042.69;5068571;28;20050;-43
2023/03/13 09:33:40;;;;;;;13.63;2.92;;;;;;;10.67;100.00;97038.63;5068275;28;20611;-43
2023/03/13 09:36:07;;;;;;;12.68;2.33;;;;;;;10.70;100.00;97042.50;5050192;28;20095;-44
2023/03/13 09:38:35;;;;;;;12.35;2.25;;;;;;;10.73;100.00;97047.16;5067977;28;20151;-47
2023/03/13 09:41:13;;;;;;;10.98;2.72;;;;;;;10.76;100.00;97038.78;5068241;28;20048;-44
2023/03/13 09:43:45;;;;;;;11.43;2.20;;;;;;;10.82;100.00;97050.09;5055060;28;20070;-43
2023/03/13 09:46:16;;;;;;;13.70;3.58;;;;;;;10.92;100.00;97049.03;5068674;28;20182;-44
2023/03/13 09:48:47;;;;;;;5.97;1.70;;;;;;;10.99;100.00;97052.38;5068216;28;20391;-44
2023/03/13 09:51:20;;;;;;;7.95;1.92;;;;;;;11.06;100.00;97054.19;5067979;28;20127;-44
2023/03/13 09:54:08;;;;;;;7.30;1.83;;;;;;;11.15;100.00;97048.00;5068195;28;20053;-45
2023/03/13 09:56:44;;;;;;;7.90;1.73;;;;;;;11.20;100.00;97045.47;5067984;28;20051;-44
2023/03/13 09:59:21;;;;;;;6.15;1.33;;;;;;;11.30;100.00;97052.72;5067874;28;20040;-44
2023/03/13 10:01:49;;;;;;;9.23;1.90;;;;;;;11.39;100.00;97049.28;5068623;28;20485;-46
2023/03/13 10:04:18;;;;;;;7.22;1.40;;;;;;;11.49;100.00;97048.97;5067803;28;20068;-45
2023/03/13 10:06:47;;;;;;;6.18;1.20;;;;;;;11.54;100.00;97067.81;5067866;28;20053;-44
2023/03/13 10:09:27;;;;;;;7.55;2.63;;;;;;;11.51;100.00;97051.31;5067720;28;20063;-46
2023/03/13 10:12:06;;;;;;;6.63;1.02;;;;;;;11.44;100.00;97057.81;5053763;28;20052;-44
2023/03/13 10:14:44;;;;;;;2.17;1.13;;;;;;;11.39;100.00;97065.88;5058407;28;20063;-46
2023/03/13 10:17:19;;;;;;;5.50;1.88;;;;;;;11.33;100.00;97062.88;5071229;28;20460;-51
2023/03/13 10:19:51;;;;;;;5.78;1.65;;;;;;;11.27;100.00;97072.97;5071888;28;20322;-44
2023/03/13 10:22:24;;;;;;;7.38;0.95;;;;;;;11.22;100.00;97067.19;5071393;28;20060;-44
2023/03/13 10:24:55;;;;;;;3.58;0.80;;;;;;;11.21;100.00;97066.41;5071503;28;20098;-44
2023/03/13 10:27:21;;;;;;;3.72;1.25;;;;;;;11.25;100.00;97069.09;5071354;28;20032;-44
2023/03/13 10:29:49;;;;;;;2.17;0.55;;;;;;;11.31;100.00;97076.41;5071230;28;20079;-51
2023/03/13 10:32:17;;;;;;;2.90;0.65;;;;;;;11.33;100.00;97090.56;5071324;28;20036;-44
2023/03/13 10:35:01;;;;;;;0.65;0.30;;;;;;;11.33;100.00;97064.91;5071654;28;20082;-44
2023/03/13 10:37:31;;;;;;;2.95;0.52;;;;;;;11.34;100.00;97069.19;5070174;28;20040;-45
2023/03/13 10:40:24;;;;;;;1.88;0.40;;;;;;;11.44;100.00;97068.91;5070897;28;20068;-44
2023/03/13 10:42:58;;;;;;;3.25;0.55;;;;;;;11.54;100.00;97075.38;5070730;28;20056;-44
2023/03/13 10:45:26;;;;;;;3.30;0.43;;;;;;;11.57;100.00;97060.59;5069205;28;20494;-46
2023/03/13 10:47:55;;;;;;;1.08;0.30;;;;;;;11.64;100.00;97065.94;5071093;28;20076;-44
2023/03/13 10:50:24;;;;;;;1.65;0.47;;;;;;;11.65;100.00;97073.03;5070648;28;20052;-47
2023/03/13 10:52:51;;;;;;;2.25;0.57;;;;;;;11.66;100.00;97071.03;5071255;28;20440;-44
2023/03/13 10:55:21;;;;;;;1.02;0.40;;;;;;;11.68;100.00;97076.91;5070599;28;20045;-44
2023/03/13 10:58:05;;;;;;;4.03;0.60;;;;;;;11.68;100.00;97076.91;5070454;28;20045;-44
2023/03/13 11:00:36;;;;;;;1.58;0.30;;;;;;;11.64;100.00;97088.13;5070708;28;20052;-44
2023/03/13 11:03:16;;;;;;;1.50;0.38;;;;;;;11.65;100.00;97081.34;5052075;28;20055;-45
2023/03/13 11:05:52;;;;;;;0.88;0.30;;;;;;;11.76;100.00;97087.38;5070443;28;20040;-44
2023/03/13 11:08:23;;;;;;;2.10;0.47;;;;;;;12.09;100.00;97085.19;5070342;28;20072;-45
2023/03/13 11:10:59;;;;;;;2.20;0.20;;;;;;;12.30;100.00;97084.53;5070973;28;20482;-45
2023/03/13 11:13:36;;;;;;;1.98;0.30;;;;;;;12.37;100.00;97089.03;5070184;28;20052;-45
2023/03/13 11:16:06;;;;;;;0.80;0.15;;;;;;;12.35;100.00;97086.72;5069978;28;20048;-45
2023/03/13 11:18:42;;;;;;;0.20;0.20;;;;;;;12.25;100.00;97082.31;5069960;28;20136;-45
2023/03/13 11:21:18;;;;;;;0.52;0.20;;;;;;;12.11;100.00;97099.38;5057889;28;20475;-45
2023/03/13 11:24:00;;;;;;;1.08;0.40;;;;;;;12.00;100.00;97107.25;5070050;28;20086;-44
2023/03/13 11:26:41;;;;;;;0.32;0.25;;;;;;;11.94;100.00;97109.78;5070606;28;20046;-45
2023/03/13 11:29:41;;;;;;;0.88;0.20;;;;;;;11.88;100.00;97108.03;5058081;28;20084;-44
2023/03/13 11:32:30;;;;;;;0.57;0.50;;;;;;;11.81;100.00;97102.69;5069890;28;20036;-46
2023/03/13 11:35:00;;;;;;;0.55;0.20;;;;;;;11.81;100.00;97108.25;5069736;28;20036;-45
2023/03/13 11:37:32;;;;;;;2.25;0.22;;;;;;;11.94;100.00;97095.19;5070174;28;20051;-45
2023/03/13 11:40:16;;;;;;;0.30;0.25;;;;;;;12.14;100.00;97104.81;5069567;28;20085;-44